Airport View

Enter AWOS ICAO identifier for current METAR.

ex. KFNL

KMYL 250151Z AUTO 26007KT 10SM CLR 16/00 A3011 RMK AO2 SLP183 T01560000

25 May 2020 02:07

Frequency: 119.925

Phone: 208-634-7198

Other Area AWOS: KGIC - KSNT - KONO - KBKE

TAF KMYL 242341Z 2500/2524 29006KT P6SM SCT050 SCT250 FM250300 VRB03KT P6SM SCT250 FM251800 19008KT P6SM SCT100